EmailTwitter


Observations de surface / France / LFBO (07630)

Régions: Québec | Canada | États-Unis | Europe | France | UK | Ailleurs
Station
Affichage
Infos & localisation pour LFBO (07630) | Aide pour décoder les METARs

Observations prises le 2018-01-24 à 09H30 UTC à TOULOUSE/BLAGNAC, FR (LFBO)

Température: 10.0 Celsius

Point de rosée: 7.0 Celsius

Humidité relative: 82%

Facteur vent: 8.

Vents: Sud-est à 19 km/h ou 10 noeuds.

Pression au niveau moyen de la mer: 102.40 kilopascals.

Observation METAR:

LFBO 240930Z AUTO 13010KT CAVOK 10/07 Q1024 NOSIG=